createdAt,value
2023-03-12T00:01:30.338Z,98.07
2023-03-12T00:06:36.307Z,96.20
2023-03-12T00:11:42.132Z,98.65
2023-03-12T00:16:48.085Z,82.32
2023-03-12T00:26:59.399Z,78.28
2023-03-12T00:32:05.052Z,78.95
2023-03-12T00:37:11.590Z,81.95
2023-03-12T00:42:18.702Z,69.15
2023-03-12T00:47:29.583Z,53.85
2023-03-12T00:52:35.494Z,78.40
2023-03-12T00:57:41.488Z,60.53
2023-03-12T01:02:47.470Z,66.47
2023-03-12T01:07:53.134Z,64.85
2023-03-12T01:12:59.383Z,70.87
2023-03-12T01:18:06.485Z,71.72
2023-03-12T01:23:15.193Z,77.43
2023-03-12T01:28:21.239Z,75.00
2023-03-12T01:33:27.008Z,70.60
2023-03-12T01:38:33.078Z,92.53
2023-03-12T01:43:42.128Z,95.47
2023-03-12T01:48:53.602Z,93.35
2023-03-12T01:54:07.711Z,90.03
2023-03-12T01:59:30.901Z,112.22
2023-03-12T02:04:38.328Z,109.25
2023-03-12T02:09:50.265Z,115.55
2023-03-12T02:14:56.231Z,127.43
2023-03-12T02:20:12.720Z,123.45
2023-03-12T02:30:54.926Z,114.85
2023-03-12T02:36:01.084Z,113.57
2023-03-12T02:41:17.190Z,108.88
2023-03-12T02:46:23.620Z,97.25
2023-03-12T02:51:29.476Z,104.28
2023-03-12T02:56:35.962Z,70.63
2023-03-12T03:01:42.631Z,83.30
2023-03-12T03:06:50.175Z,92.63
2023-03-12T03:11:56.250Z,114.65
2023-03-12T03:17:04.339Z,101.80
2023-03-12T03:22:11.542Z,91.15
2023-03-12T03:27:19.117Z,91.20
2023-03-12T03:32:25.419Z,103.30
2023-03-12T03:37:31.392Z,82.18
2023-03-12T03:42:37.402Z,77.45
2023-03-12T03:47:43.376Z,93.10
2023-03-12T03:52:53.817Z,79.97
2023-03-12T03:58:03.154Z,98.68
2023-03-12T04:03:09.614Z,93.07
2023-03-12T04:08:18.853Z,89.03
2023-03-12T04:13:25.303Z,91.55
2023-03-12T04:18:31.701Z,99.32
2023-03-12T04:23:42.841Z,92.00
2023-03-12T04:28:50.897Z,103.45
2023-03-12T04:33:57.990Z,100.88
2023-03-12T04:39:05.115Z,94.75
2023-03-12T04:44:12.845Z,95.28
2023-03-12T04:49:19.699Z,95.38
2023-03-12T04:54:25.979Z,92.35
2023-03-12T04:59:32.286Z,85.18
2023-03-12T05:04:39.100Z,79.45
2023-03-12T05:09:46.104Z,77.05
2023-03-12T05:14:53.511Z,105.38
2023-03-12T05:20:00.735Z,91.18
2023-03-12T05:25:11.240Z,128.60
2023-03-12T05:30:18.380Z,102.65
2023-03-12T05:35:25.746Z,196.57
2023-03-12T05:40:33.187Z,170.10
2023-03-12T05:45:49.031Z,126.10
2023-03-12T05:50:55.869Z,149.60
2023-03-12T05:56:10.558Z,120.93
2023-03-12T06:01:21.170Z,118.55
2023-03-12T06:06:31.223Z,88.20
2023-03-12T06:23:51.851Z,110.45
2023-03-12T06:29:10.234Z,106.30
2023-03-12T06:34:22.168Z,104.95
2023-03-12T06:39:28.616Z,102.90
2023-03-12T06:44:35.105Z,111.13
2023-03-12T06:49:47.943Z,109.90
2023-03-12T06:54:55.522Z,109.90
2023-03-12T07:00:08.392Z,100.45
2023-03-12T07:05:24.181Z,97.50
2023-03-12T07:10:51.228Z,96.85
2023-03-12T07:21:52.064Z,86.55
2023-03-12T07:27:03.698Z,87.25
2023-03-12T07:32:10.199Z,78.80
2023-03-12T07:37:16.238Z,87.05
2023-03-12T07:47:31.692Z,87.07
2023-03-12T07:52:38.156Z,81.50
2023-03-12T07:57:44.614Z,81.40
2023-03-12T08:02:51.177Z,84.93
2023-03-12T08:07:59.678Z,83.75
2023-03-12T08:13:06.243Z,82.63
2023-03-12T08:18:13.119Z,77.93
2023-03-12T08:23:20.012Z,84.40
2023-03-12T08:28:27.180Z,89.18
2023-03-12T08:33:32.681Z,87.05
2023-03-12T08:38:38.698Z,89.38
2023-03-12T08:49:01.579Z,93.63
2023-03-12T08:54:15.255Z,82.55
2023-03-12T08:59:41.966Z,91.47
2023-03-12T09:04:51.475Z,86.88
2023-03-12T09:10:00.412Z,94.03
2023-03-12T09:15:06.721Z,89.10
2023-03-12T09:20:15.769Z,91.70
2023-03-12T09:25:22.955Z,98.82
2023-03-12T09:30:31.979Z,91.65
2023-03-12T09:35:38.204Z,106.43
2023-03-12T09:40:49.107Z,103.07
2023-03-12T09:45:55.836Z,97.53
2023-03-12T09:51:32.767Z,100.32
2023-03-12T09:56:38.822Z,102.20
2023-03-12T10:01:49.728Z,112.63
2023-03-12T10:07:19.274Z,103.38
2023-03-12T10:12:41.005Z,98.00
2023-03-12T10:17:57.928Z,100.50
2023-03-12T10:23:04.027Z,118.07
2023-03-12T10:28:28.660Z,119.38
2023-03-12T10:33:52.089Z,115.30
2023-03-12T10:39:11.349Z,148.27
2023-03-12T10:44:25.853Z,110.18
2023-03-12T10:49:35.643Z,90.68
2023-03-12T10:55:09.688Z,125.97
2023-03-12T11:00:24.017Z,135.52
2023-03-12T11:05:33.534Z,138.52
2023-03-12T11:10:47.165Z,160.77
2023-03-12T11:15:54.576Z,162.00
2023-03-12T11:21:22.184Z,152.68
2023-03-12T11:26:49.032Z,160.27
2023-03-12T11:32:07.826Z,144.23
2023-03-12T11:37:27.754Z,138.85
2023-03-12T11:43:08.017Z,146.60
2023-03-12T11:48:31.157Z,157.60
2023-03-12T11:54:10.778Z,149.70
2023-03-12T11:59:16.687Z,145.52
2023-03-12T12:09:57.213Z,154.27
2023-03-12T12:15:36.733Z,148.33
2023-03-12T12:21:11.488Z,143.32
2023-03-12T12:26:46.806Z,155.90
2023-03-12T12:32:01.411Z,168.88
2023-03-12T12:37:32.372Z,133.10
2023-03-12T12:42:46.219Z,170.95
2023-03-12T12:48:10.390Z,155.40
2023-03-12T12:53:41.932Z,167.65
2023-03-12T12:59:08.280Z,151.13
2023-03-12T13:04:27.317Z,136.52
2023-03-12T13:09:53.478Z,153.07
2023-03-12T13:15:07.380Z,151.10
2023-03-12T13:20:16.884Z,166.15
2023-03-12T13:25:58.492Z,138.05
2023-03-12T13:42:58.920Z,111.60
2023-03-12T13:48:08.738Z,95.30
2023-03-12T13:53:37.607Z,101.50
2023-03-12T13:59:10.778Z,67.47
2023-03-12T14:04:29.767Z,78.90
2023-03-12T14:10:15.050Z,73.00
2023-03-12T14:16:05.173Z,66.07
2023-03-12T14:21:26.794Z,74.47
2023-03-12T14:26:45.054Z,60.55
2023-03-12T14:31:55.194Z,70.35
2023-03-12T14:37:25.253Z,51.20
2023-03-12T14:42:37.979Z,64.13
2023-03-12T14:47:51.241Z,63.95
2023-03-12T14:53:13.764Z,60.33
2023-03-12T14:58:44.863Z,50.55
2023-03-12T15:03:56.129Z,40.90
2023-03-12T15:09:10.337Z,46.15
2023-03-12T15:14:18.746Z,34.35
2023-03-12T15:19:33.215Z,38.58
2023-03-12T15:24:47.098Z,34.95
2023-03-12T15:29:54.961Z,54.80
2023-03-12T15:35:02.599Z,36.03
2023-03-12T15:40:23.292Z,32.55
2023-03-12T15:45:39.664Z,28.30
2023-03-12T15:50:47.346Z,38.83
2023-03-12T15:56:19.802Z,24.23
2023-03-12T16:01:29.680Z,33.30
2023-03-12T16:06:38.878Z,28.55
2023-03-12T16:11:45.709Z,28.42
2023-03-12T16:16:52.744Z,26.77
2023-03-12T16:21:59.446Z,31.33
2023-03-12T16:27:09.178Z,23.08
2023-03-12T16:32:19.911Z,35.42
2023-03-12T16:37:27.307Z,32.65
2023-03-12T16:42:36.220Z,31.25
2023-03-12T16:47:44.215Z,18.60
2023-03-12T16:52:54.401Z,24.05
2023-03-12T16:58:03.493Z,22.40
2023-03-12T17:03:09.676Z,19.73
2023-03-12T17:08:17.694Z,19.80
2023-03-12T17:13:25.314Z,21.10
2023-03-12T17:18:32.197Z,18.40
2023-03-12T17:23:37.968Z,19.48
2023-03-12T17:28:43.482Z,17.63
2023-03-12T17:33:49.165Z,18.93
2023-03-12T17:38:54.995Z,19.23
2023-03-12T17:44:05.123Z,20.80
2023-03-12T17:49:11.565Z,13.93
2023-03-12T17:54:17.501Z,19.27
2023-03-12T17:59:23.387Z,19.00
2023-03-12T18:04:28.922Z,13.82
2023-03-12T18:09:34.921Z,13.23
2023-03-12T18:14:40.738Z,10.98
2023-03-12T18:19:46.381Z,16.58
2023-03-12T18:24:52.422Z,15.18
2023-03-12T18:29:58.616Z,12.88
2023-03-12T18:40:10.411Z,16.38
2023-03-12T18:45:15.989Z,14.32
2023-03-12T18:50:22.027Z,16.67
2023-03-12T19:00:32.349Z,15.23
2023-03-12T19:05:37.707Z,16.90
2023-03-12T19:10:47.256Z,14.57
2023-03-12T19:16:00.771Z,17.35
2023-03-12T19:21:08.618Z,20.90
2023-03-12T19:26:15.683Z,16.25
2023-03-12T19:31:21.148Z,14.63
2023-03-12T19:36:26.492Z,11.07
2023-03-12T19:41:32.435Z,15.57
2023-03-12T19:46:37.961Z,18.67
2023-03-12T19:51:43.378Z,21.67
2023-03-12T19:56:49.611Z,18.10
2023-03-12T20:01:55.242Z,17.40
2023-03-12T20:07:00.338Z,16.47
2023-03-12T20:12:05.622Z,23.25
2023-03-12T20:17:11.767Z,25.37
2023-03-12T20:22:26.801Z,25.23
2023-03-12T20:27:32.671Z,18.90
2023-03-12T20:32:38.116Z,21.27
2023-03-12T20:37:43.504Z,19.80
2023-03-12T20:42:48.570Z,17.47
2023-03-12T20:47:54.855Z,15.52
2023-03-12T20:53:00.808Z,19.17
2023-03-12T20:58:06.325Z,22.58
2023-03-12T21:03:16.011Z,17.70
2023-03-12T21:08:21.496Z,17.85
2023-03-12T21:13:27.667Z,16.90
2023-03-12T21:23:45.398Z,20.83
2023-03-12T21:28:50.498Z,10.48
2023-03-12T21:33:59.455Z,16.30
2023-03-12T21:39:04.547Z,17.65
2023-03-12T21:44:09.589Z,16.00
2023-03-12T21:49:15.392Z,18.15
2023-03-12T21:54:20.781Z,15.02
2023-03-12T21:59:26.293Z,17.13
2023-03-12T22:04:31.693Z,13.13
2023-03-12T22:09:37.062Z,22.92
2023-03-12T22:14:42.380Z,23.70
2023-03-12T22:19:47.924Z,13.47
2023-03-12T22:24:53.290Z,19.60
2023-03-12T22:29:58.894Z,28.53
2023-03-12T22:35:04.477Z,10.25
2023-03-12T22:40:11.057Z,20.33
2023-03-12T22:45:16.088Z,30.73
2023-03-12T22:50:21.550Z,16.70
2023-03-12T22:55:26.843Z,44.60
2023-03-12T23:00:31.917Z,21.53
2023-03-12T23:05:37.214Z,11.93
2023-03-12T23:10:42.880Z,33.33
2023-03-12T23:15:48.810Z,27.47
2023-03-12T23:21:01.087Z,29.27
2023-03-12T23:26:06.260Z,21.38
2023-03-12T23:31:12.080Z,19.00
2023-03-12T23:36:19.472Z,36.67
2023-03-12T23:41:30.968Z,24.15
2023-03-12T23:46:36.540Z,19.80
2023-03-12T23:51:42.321Z,25.07
2023-03-12T23:56:48.239Z,34.90
